sensor_id;sensor_type;location;lat;lon;timestamp;pressure;altitude;pressure_sealevel;temperature;humidity
59106;BME280;44891;50.204;8.132;2023-06-26T00:00:16;98163.25;;;18.71;71.19
59106;BME280;44891;50.204;8.132;2023-06-26T00:04:21;98163.59;;;18.97;70.26
59106;BME280;44891;50.204;8.132;2023-06-26T00:08:23;98168.91;;;18.97;70.19
59106;BME280;44891;50.204;8.132;2023-06-26T00:12:25;98165.06;;;18.90;70.75
59106;BME280;44891;50.204;8.132;2023-06-26T00:16:27;98157.47;;;18.97;70.26
59106;BME280;44891;50.204;8.132;2023-06-26T00:20:30;98152.91;;;18.70;71.53
59106;BME280;44891;50.204;8.132;2023-06-26T00:24:34;98157.03;;;18.76;71.81
59106;BME280;44891;50.204;8.132;2023-06-26T00:28:36;98153.31;;;18.77;71.44
59106;BME280;44891;50.204;8.132;2023-06-26T00:32:38;98145.63;;;18.89;71.09
59106;BME280;44891;50.204;8.132;2023-06-26T00:36:41;98145.00;;;18.46;72.84
59106;BME280;44891;50.204;8.132;2023-06-26T00:40:44;98137.44;;;18.53;72.81
59106;BME280;44891;50.204;8.132;2023-06-26T00:44:46;98134.19;;;18.42;72.93
59106;BME280;44891;50.204;8.132;2023-06-26T00:48:48;98124.28;;;18.29;73.69
59106;BME280;44891;50.204;8.132;2023-06-26T00:52:51;98133.91;;;18.25;73.84
59106;BME280;44891;50.204;8.132;2023-06-26T00:56:55;98132.72;;;18.50;73.08
59106;BME280;44891;50.204;8.132;2023-06-26T01:00:57;98133.59;;;18.45;72.82
59106;BME280;44891;50.204;8.132;2023-06-26T01:04:59;98132.59;;;18.55;72.48
59106;BME280;44891;50.204;8.132;2023-06-26T01:09:05;98132.41;;;18.70;72.40
59106;BME280;44891;50.204;8.132;2023-06-26T01:13:07;98127.28;;;18.88;71.35
59106;BME280;44891;50.204;8.132;2023-06-26T01:17:09;98123.94;;;18.82;71.56
59106;BME280;44891;50.204;8.132;2023-06-26T01:21:14;98114.94;;;18.32;73.21
59106;BME280;44891;50.204;8.132;2023-06-26T01:25:20;98110.47;;;18.27;73.97
59106;BME280;44891;50.204;8.132;2023-06-26T01:29:24;98112.16;;;18.23;74.07
59106;BME280;44891;50.204;8.132;2023-06-26T01:33:27;98110.50;;;18.41;72.57
59106;BME280;44891;50.204;8.132;2023-06-26T01:37:29;98103.94;;;18.52;71.87
59106;BME280;44891;50.204;8.132;2023-06-26T01:41:31;98105.53;;;18.53;72.61
59106;BME280;44891;50.204;8.132;2023-06-26T01:45:34;98097.94;;;18.60;72.04
59106;BME280;44891;50.204;8.132;2023-06-26T01:49:39;98104.06;;;18.61;72.55
59106;BME280;44891;50.204;8.132;2023-06-26T01:53:45;98105.06;;;18.65;72.48
59106;BME280;44891;50.204;8.132;2023-06-26T01:57:48;98111.63;;;18.54;72.46
59106;BME280;44891;50.204;8.132;2023-06-26T02:01:53;98108.56;;;17.95;74.38
59106;BME280;44891;50.204;8.132;2023-06-26T02:05:55;98105.22;;;17.89;75.19
59106;BME280;44891;50.204;8.132;2023-06-26T02:09:57;98109.44;;;18.09;74.04
59106;BME280;44891;50.204;8.132;2023-06-26T02:13:59;98102.63;;;18.03;74.00
59106;BME280;44891;50.204;8.132;2023-06-26T02:18:03;98092.91;;;17.93;73.89
59106;BME280;44891;50.204;8.132;2023-06-26T02:22:04;98100.34;;;17.78;74.47
59106;BME280;44891;50.204;8.132;2023-06-26T02:26:06;98099.91;;;17.89;73.72
59106;BME280;44891;50.204;8.132;2023-06-26T02:30:08;98098.53;;;17.92;73.24
59106;BME280;44891;50.204;8.132;2023-06-26T02:34:12;98091.41;;;17.87;73.61
59106;BME280;44891;50.204;8.132;2023-06-26T02:38:14;98099.19;;;18.03;72.85
59106;BME280;44891;50.204;8.132;2023-06-26T02:42:16;98094.84;;;17.88;73.37
59106;BME280;44891;50.204;8.132;2023-06-26T02:46:18;98095.31;;;17.76;73.53
59106;BME280;44891;50.204;8.132;2023-06-26T02:50:21;98087.84;;;17.97;72.79
59106;BME280;44891;50.204;8.132;2023-06-26T02:54:52;98099.25;;;17.98;72.41
59106;BME280;44891;50.204;8.132;2023-06-26T02:58:54;98094.50;;;17.94;73.31
59106;BME280;44891;50.204;8.132;2023-06-26T03:02:56;98088.41;;;17.94;73.73
59106;BME280;44891;50.204;8.132;2023-06-26T03:06:59;98090.53;;;18.11;73.22
59106;BME280;44891;50.204;8.132;2023-06-26T03:11:02;98087.03;;;17.97;73.18
59106;BME280;44891;50.204;8.132;2023-06-26T03:15:04;98086.16;;;17.82;73.91
59106;BME280;44891;50.204;8.132;2023-06-26T03:19:07;98088.53;;;17.65;74.36
59106;BME280;44891;50.204;8.132;2023-06-26T03:23:30;98080.50;;;17.70;74.28
59106;BME280;44891;50.204;8.132;2023-06-26T03:27:32;98082.88;;;17.72;73.80
59106;BME280;44891;50.204;8.132;2023-06-26T03:31:33;98082.81;;;17.77;73.33
59106;BME280;44891;50.204;8.132;2023-06-26T03:35:36;98079.53;;;17.61;73.55
59106;BME280;44891;50.204;8.132;2023-06-26T03:39:40;98081.69;;;17.83;72.97
59106;BME280;44891;50.204;8.132;2023-06-26T03:43:42;98074.13;;;17.90;72.19
59106;BME280;44891;50.204;8.132;2023-06-26T03:47:52;98078.06;;;17.92;71.96
59106;BME280;44891;50.204;8.132;2023-06-26T03:51:54;98076.84;;;18.04;72.24
59106;BME280;44891;50.204;8.132;2023-06-26T03:55:58;98074.66;;;18.06;72.01
59106;BME280;44891;50.204;8.132;2023-06-26T04:00:00;98075.31;;;18.16;71.77
59106;BME280;44891;50.204;8.132;2023-06-26T04:04:15;98076.34;;;18.15;71.58
59106;BME280;44891;50.204;8.132;2023-06-26T04:08:17;98078.09;;;18.25;71.20
59106;BME280;44891;50.204;8.132;2023-06-26T04:12:22;98074.66;;;18.38;70.87
59106;BME280;44891;50.204;8.132;2023-06-26T04:16:25;98070.53;;;18.46;71.52
59106;BME280;44891;50.204;8.132;2023-06-26T04:20:26;98078.63;;;18.55;71.88
59106;BME280;44891;50.204;8.132;2023-06-26T04:24:28;98078.97;;;18.67;71.29
59106;BME280;44891;50.204;8.132;2023-06-26T04:28:32;98084.13;;;18.77;70.53
59106;BME280;44891;50.204;8.132;2023-06-26T04:32:33;98077.63;;;18.83;70.67
59106;BME280;44891;50.204;8.132;2023-06-26T04:36:35;98082.97;;;18.97;70.81
59106;BME280;44891;50.204;8.132;2023-06-26T04:40:39;98076.13;;;19.18;70.76
59106;BME280;44891;50.204;8.132;2023-06-26T04:44:42;98073.47;;;19.32;70.28
59106;BME280;44891;50.204;8.132;2023-06-26T04:48:44;98070.28;;;19.44;70.80
59106;BME280;44891;50.204;8.132;2023-06-26T04:52:46;98072.84;;;19.63;69.88
59106;BME280;44891;50.204;8.132;2023-06-26T04:56:48;98076.34;;;19.72;70.77
59106;BME280;44891;50.204;8.132;2023-06-26T05:00:51;98075.53;;;19.85;70.25
59106;BME280;44891;50.204;8.132;2023-06-26T05:04:53;98070.13;;;19.99;70.50
59106;BME280;44891;50.204;8.132;2023-06-26T05:08:54;98069.78;;;20.14;70.19
59106;BME280;44891;50.204;8.132;2023-06-26T05:12:56;98071.34;;;20.37;69.43
59106;BME280;44891;50.204;8.132;2023-06-26T05:16:59;98069.94;;;20.62;67.94
59106;BME280;44891;50.204;8.132;2023-06-26T05:21:02;98072.94;;;20.70;68.22
59106;BME280;44891;50.204;8.132;2023-06-26T05:25:04;98080.53;;;20.85;69.61
59106;BME280;44891;50.204;8.132;2023-06-26T05:29:06;98048.94;;;20.70;69.13
59106;BME280;44891;50.204;8.132;2023-06-26T05:33:10;98077.63;;;21.04;69.39
59106;BME280;44891;50.204;8.132;2023-06-26T05:37:12;98083.19;;;21.25;68.73
59106;BME280;44891;50.204;8.132;2023-06-26T05:41:16;98073.53;;;21.46;68.76
59106;BME280;44891;50.204;8.132;2023-06-26T05:45:18;98076.06;;;21.68;67.65
59106;BME280;44891;50.204;8.132;2023-06-26T05:49:21;98070.06;;;21.89;65.22
59106;BME280;44891;50.204;8.132;2023-06-26T05:53:23;98068.84;;;22.12;65.08
59106;BME280;44891;50.204;8.132;2023-06-26T05:57:26;98076.03;;;22.29;67.28
59106;BME280;44891;50.204;8.132;2023-06-26T06:01:28;98078.03;;;22.49;67.08
59106;BME280;44891;50.204;8.132;2023-06-26T06:05:32;98092.88;;;22.85;57.92
59106;BME280;44891;50.204;8.132;2023-06-26T06:09:33;98092.59;;;23.16;61.87
59106;BME280;44891;50.204;8.132;2023-06-26T06:13:35;98082.75;;;23.29;61.30
59106;BME280;44891;50.204;8.132;2023-06-26T06:17:37;98085.97;;;23.43;60.80
59106;BME280;44891;50.204;8.132;2023-06-26T06:21:40;98077.66;;;23.66;57.88
59106;BME280;44891;50.204;8.132;2023-06-26T06:25:43;98075.09;;;23.90;57.92
59106;BME280;44891;50.204;8.132;2023-06-26T06:29:45;98083.81;;;24.20;51.69
59106;BME280;44891;50.204;8.132;2023-06-26T06:33:47;98076.31;;;24.47;50.61
59106;BME280;44891;50.204;8.132;2023-06-26T06:37:50;98086.66;;;24.69;50.10
59106;BME280;44891;50.204;8.132;2023-06-26T06:41:52;98096.53;;;24.89;49.57
59106;BME280;44891;50.204;8.132;2023-06-26T06:45:54;98095.50;;;24.94;53.93
59106;BME280;44891;50.204;8.132;2023-06-26T06:49:56;98104.47;;;24.98;54.49
59106;BME280;44891;50.204;8.132;2023-06-26T06:53:59;98103.69;;;24.98;55.96
59106;BME280;44891;50.204;8.132;2023-06-26T06:58:01;98105.53;;;25.06;53.97
59106;BME280;44891;50.204;8.132;2023-06-26T07:02:03;98119.19;;;25.13;50.78
59106;BME280;44891;50.204;8.132;2023-06-26T07:06:05;98117.06;;;25.18;52.41
59106;BME280;44891;50.204;8.132;2023-06-26T07:10:12;98128.03;;;25.13;49.78
59106;BME280;44891;50.204;8.132;2023-06-26T07:14:14;98121.44;;;25.23;50.36
59106;BME280;44891;50.204;8.132;2023-06-26T07:18:16;98122.53;;;25.22;50.41
59106;BME280;44891;50.204;8.132;2023-06-26T07:22:18;98111.47;;;25.36;49.75
59106;BME280;44891;50.204;8.132;2023-06-26T07:26:22;98118.03;;;25.51;48.37
59106;BME280;44891;50.204;8.132;2023-06-26T07:30:24;98129.25;;;25.53;48.20
59106;BME280;44891;50.204;8.132;2023-06-26T07:34:26;98131.84;;;25.49;48.83
59106;BME280;44891;50.204;8.132;2023-06-26T07:38:27;98136.22;;;25.29;48.85
59106;BME280;44891;50.204;8.132;2023-06-26T07:42:31;98137.94;;;25.01;50.31
59106;BME280;44891;50.204;8.132;2023-06-26T07:46:32;98142.75;;;24.83;50.04
59106;BME280;44891;50.204;8.132;2023-06-26T07:50:34;98149.09;;;24.66;50.95
59106;BME280;44891;50.204;8.132;2023-06-26T07:54:36;98163.44;;;24.82;50.89
59106;BME280;44891;50.204;8.132;2023-06-26T07:58:39;98157.28;;;24.82;50.97
59106;BME280;44891;50.204;8.132;2023-06-26T08:02:41;98162.13;;;24.88;51.35
59106;BME280;44891;50.204;8.132;2023-06-26T08:06:43;98157.72;;;25.17;52.00
59106;BME280;44891;50.204;8.132;2023-06-26T08:10:45;98158.47;;;25.42;51.01
59106;BME280;44891;50.204;8.132;2023-06-26T08:14:48;98153.91;;;25.42;51.02
59106;BME280;44891;50.204;8.132;2023-06-26T08:18:50;98153.34;;;25.37;51.89
59106;BME280;44891;50.204;8.132;2023-06-26T08:22:52;98170.00;;;25.06;52.58
59106;BME280;44891;50.204;8.132;2023-06-26T08:26:54;98176.66;;;24.87;52.97
59106;BME280;44891;50.204;8.132;2023-06-26T08:30:58;98165.34;;;24.82;53.47
59106;BME280;44891;50.204;8.132;2023-06-26T08:35:00;98159.78;;;24.99;54.04
59106;BME280;44891;50.204;8.132;2023-06-26T08:39:02;98158.59;;;25.09;53.42
59106;BME280;44891;50.204;8.132;2023-06-26T08:43:05;98162.91;;;24.89;54.21
59106;BME280;44891;50.204;8.132;2023-06-26T08:47:08;98180.28;;;25.04;53.05
59106;BME280;44891;50.204;8.132;2023-06-26T08:51:13;98176.97;;;25.19;51.39
59106;BME280;44891;50.204;8.132;2023-06-26T08:55:17;98170.81;;;25.43;49.63
59106;BME280;44891;50.204;8.132;2023-06-26T08:59:22;98172.06;;;25.82;49.27
59106;BME280;44891;50.204;8.132;2023-06-26T09:03:25;98169.78;;;25.84;48.99
59106;BME280;44891;50.204;8.132;2023-06-26T09:07:27;98176.75;;;25.73;48.67
59106;BME280;44891;50.204;8.132;2023-06-26T09:11:29;98173.72;;;25.62;48.47
59106;BME280;44891;50.204;8.132;2023-06-26T09:15:36;98178.53;;;25.81;48.26
59106;BME280;44891;50.204;8.132;2023-06-26T09:19:40;98179.09;;;25.87;48.56
59106;BME280;44891;50.204;8.132;2023-06-26T09:23:42;98179.50;;;26.01;49.46
59106;BME280;44891;50.204;8.132;2023-06-26T09:27:44;98189.56;;;26.16;48.55
59106;BME280;44891;50.204;8.132;2023-06-26T09:31:46;98200.88;;;26.22;48.46
59106;BME280;44891;50.204;8.132;2023-06-26T09:35:49;98214.81;;;26.12;48.82
59106;BME280;44891;50.204;8.132;2023-06-26T09:39:51;98217.50;;;26.12;49.60
59106;BME280;44891;50.204;8.132;2023-06-26T09:43:53;98217.28;;;26.05;49.65
59106;BME280;44891;50.204;8.132;2023-06-26T09:47:59;98212.28;;;25.91;50.58
59106;BME280;44891;50.204;8.132;2023-06-26T09:52:03;98205.41;;;26.06;50.78
59106;BME280;44891;50.204;8.132;2023-06-26T09:56:05;98200.44;;;26.08;50.46
59106;BME280;44891;50.204;8.132;2023-06-26T10:00:07;98200.03;;;25.93;50.68
59106;BME280;44891;50.204;8.132;2023-06-26T10:04:18;98209.06;;;26.13;51.25
59106;BME280;44891;50.204;8.132;2023-06-26T10:08:23;98214.34;;;26.22;49.57
59106;BME280;44891;50.204;8.132;2023-06-26T10:12:26;98194.59;;;26.18;48.93
59106;BME280;44891;50.204;8.132;2023-06-26T10:16:29;98192.31;;;26.32;49.46
59106;BME280;44891;50.204;8.132;2023-06-26T10:20:33;98197.53;;;26.81;49.61
59106;BME280;44891;50.204;8.132;2023-06-26T10:24:36;98192.28;;;26.72;48.02
59106;BME280;44891;50.204;8.132;2023-06-26T10:28:40;98190.72;;;26.87;49.01
59106;BME280;44891;50.204;8.132;2023-06-26T10:32:43;98198.56;;;26.92;48.44
59106;BME280;44891;50.204;8.132;2023-06-26T10:36:45;98206.81;;;26.99;47.45
59106;BME280;44891;50.204;8.132;2023-06-26T10:40:50;98205.81;;;27.20;48.02
59106;BME280;44891;50.204;8.132;2023-06-26T10:44:52;98205.47;;;27.05;47.01
59106;BME280;44891;50.204;8.132;2023-06-26T10:48:57;98201.09;;;26.85;47.68
59106;BME280;44891;50.204;8.132;2023-06-26T10:53:10;98202.09;;;27.24;47.03
59106;BME280;44891;50.204;8.132;2023-06-26T10:57:13;98212.53;;;27.42;46.55
59106;BME280;44891;50.204;8.132;2023-06-26T11:01:24;98212.81;;;27.36;46.88
59106;BME280;44891;50.204;8.132;2023-06-26T11:05:26;98208.34;;;27.44;47.49
59106;BME280;44891;50.204;8.132;2023-06-26T11:09:28;98203.47;;;27.81;47.33
59106;BME280;44891;50.204;8.132;2023-06-26T11:13:32;98200.03;;;27.84;46.98
59106;BME280;44891;50.204;8.132;2023-06-26T11:17:36;98198.53;;;28.03;47.12
59106;BME280;44891;50.204;8.132;2023-06-26T11:21:38;98193.66;;;28.66;46.00
59106;BME280;44891;50.204;8.132;2023-06-26T11:25:40;98209.00;;;28.62;46.21
59106;BME280;44891;50.204;8.132;2023-06-26T11:29:48;98210.53;;;28.25;45.72
59106;BME280;44891;50.204;8.132;2023-06-26T11:33:50;98213.06;;;27.98;46.60
59106;BME280;44891;50.204;8.132;2023-06-26T11:37:54;98218.47;;;27.98;47.07
59106;BME280;44891;50.204;8.132;2023-06-26T11:41:57;98214.47;;;28.27;46.91
59106;BME280;44891;50.204;8.132;2023-06-26T11:46:00;98222.66;;;28.69;46.73
59106;BME280;44891;50.204;8.132;2023-06-26T11:50:02;98232.13;;;28.60;45.76
59106;BME280;44891;50.204;8.132;2023-06-26T11:54:05;98209.78;;;28.43;46.55
59106;BME280;44891;50.204;8.132;2023-06-26T11:58:07;98237.59;;;28.63;47.04
59106;BME280;44891;50.204;8.132;2023-06-26T12:02:12;98213.47;;;27.81;47.87
59106;BME280;44891;50.204;8.132;2023-06-26T12:06:15;98242.63;;;28.26;48.07
59106;BME280;44891;50.204;8.132;2023-06-26T12:10:17;98250.91;;;28.17;48.29
59106;BME280;44891;50.204;8.132;2023-06-26T12:14:20;98234.50;;;27.91;48.67
59106;BME280;44891;50.204;8.132;2023-06-26T12:18:24;98255.06;;;27.96;47.98
59106;BME280;44891;50.204;8.132;2023-06-26T12:22:33;98249.56;;;27.92;48.71
59106;BME280;44891;50.204;8.132;2023-06-26T12:26:35;98249.69;;;28.15;47.37
59106;BME280;44891;50.204;8.132;2023-06-26T12:30:38;98255.47;;;28.13;45.90
59106;BME280;44891;50.204;8.132;2023-06-26T12:34:41;98260.56;;;27.68;46.86
59106;BME280;44891;50.204;8.132;2023-06-26T12:38:44;98261.19;;;27.61;46.02
59106;BME280;44891;50.204;8.132;2023-06-26T12:42:46;98250.94;;;28.02;47.00
59106;BME280;44891;50.204;8.132;2023-06-26T12:46:49;98260.72;;;28.26;45.43
59106;BME280;44891;50.204;8.132;2023-06-26T12:50:52;98269.94;;;28.25;44.20
59106;BME280;44891;50.204;8.132;2023-06-26T12:54:55;98272.78;;;28.48;44.14
59106;BME280;44891;50.204;8.132;2023-06-26T12:58:58;98268.75;;;27.71;45.06
59106;BME280;44891;50.204;8.132;2023-06-26T13:02:59;98259.53;;;27.41;45.20
59106;BME280;44891;50.204;8.132;2023-06-26T13:07:03;98257.59;;;27.73;45.40
59106;BME280;44891;50.204;8.132;2023-06-26T13:11:05;98253.09;;;27.61;45.16
59106;BME280;44891;50.204;8.132;2023-06-26T13:15:07;98250.97;;;27.86;44.25
59106;BME280;44891;50.204;8.132;2023-06-26T13:19:09;98251.06;;;28.25;43.82
59106;BME280;44891;50.204;8.132;2023-06-26T13:23:12;98256.34;;;28.02;42.61
59106;BME280;44891;50.204;8.132;2023-06-26T13:27:14;98266.41;;;28.21;42.17
59106;BME280;44891;50.204;8.132;2023-06-26T13:31:16;98263.97;;;28.15;42.22
59106;BME280;44891;50.204;8.132;2023-06-26T13:35:18;98252.97;;;28.40;41.55
59106;BME280;44891;50.204;8.132;2023-06-26T13:39:21;98266.88;;;28.42;41.87
59106;BME280;44891;50.204;8.132;2023-06-26T13:43:23;98277.75;;;28.65;40.77
59106;BME280;44891;50.204;8.132;2023-06-26T13:47:25;98291.00;;;28.70;40.23
59106;BME280;44891;50.204;8.132;2023-06-26T13:51:27;98287.03;;;28.29;40.29
59106;BME280;44891;50.204;8.132;2023-06-26T13:55:30;98297.44;;;27.32;40.88
59106;BME280;44891;50.204;8.132;2023-06-26T13:59:33;98287.47;;;27.48;40.34
59106;BME280;44891;50.204;8.132;2023-06-26T14:03:35;98277.56;;;27.68;41.18
59106;BME280;44891;50.204;8.132;2023-06-26T14:07:37;98283.34;;;27.86;39.86
59106;BME280;44891;50.204;8.132;2023-06-26T14:11:40;98289.13;;;28.00;39.66
59106;BME280;44891;50.204;8.132;2023-06-26T14:15:42;98284.56;;;28.04;39.49
59106;BME280;44891;50.204;8.132;2023-06-26T14:19:44;98279.50;;;28.03;39.54
59106;BME280;44891;50.204;8.132;2023-06-26T14:23:47;98295.75;;;27.87;39.56
59106;BME280;44891;50.204;8.132;2023-06-26T14:27:50;98285.44;;;27.45;39.84
59106;BME280;44891;50.204;8.132;2023-06-26T14:31:52;98294.50;;;27.37;39.11
59106;BME280;44891;50.204;8.132;2023-06-26T14:35:54;98292.41;;;27.30;39.81
59106;BME280;44891;50.204;8.132;2023-06-26T14:39:55;98291.13;;;27.72;39.80
59106;BME280;44891;50.204;8.132;2023-06-26T14:43:59;98299.28;;;27.44;39.90
59106;BME280;44891;50.204;8.132;2023-06-26T14:48:01;98296.94;;;27.42;39.22
59106;BME280;44891;50.204;8.132;2023-06-26T14:52:03;98309.38;;;27.47;39.49
59106;BME280;44891;50.204;8.132;2023-06-26T14:56:05;98305.38;;;27.56;38.72
59106;BME280;44891;50.204;8.132;2023-06-26T15:00:10;98297.44;;;27.16;39.42
59106;BME280;44891;50.204;8.132;2023-06-26T15:04:12;98304.81;;;27.19;39.16
59106;BME280;44891;50.204;8.132;2023-06-26T15:08:14;98317.63;;;27.38;38.87
59106;BME280;44891;50.204;8.132;2023-06-26T15:12:16;98305.16;;;26.90;39.27
59106;BME280;44891;50.204;8.132;2023-06-26T15:16:19;98316.91;;;26.97;38.97
59106;BME280;44891;50.204;8.132;2023-06-26T15:20:21;98318.97;;;26.88;38.79
59106;BME280;44891;50.204;8.132;2023-06-26T15:24:23;98315.53;;;27.16;38.94
59106;BME280;44891;50.204;8.132;2023-06-26T15:28:24;98311.63;;;27.01;38.45
59106;BME280;44891;50.204;8.132;2023-06-26T15:32:27;98316.00;;;27.05;38.76
59106;BME280;44891;50.204;8.132;2023-06-26T15:36:29;98316.25;;;26.60;38.82
59106;BME280;44891;50.204;8.132;2023-06-26T15:40:31;98311.56;;;26.57;39.48
59106;BME280;44891;50.204;8.132;2023-06-26T15:44:33;98307.88;;;26.49;38.55
59106;BME280;44891;50.204;8.132;2023-06-26T15:48:36;98314.41;;;26.48;39.08
59106;BME280;44891;50.204;8.132;2023-06-26T15:52:38;98318.63;;;26.37;38.43
59106;BME280;44891;50.204;8.132;2023-06-26T15:56:40;98321.44;;;26.41;38.59
59106;BME280;44891;50.204;8.132;2023-06-26T16:00:42;98304.03;;;26.38;39.16
59106;BME280;44891;50.204;8.132;2023-06-26T16:04:45;98313.41;;;26.16;38.82
59106;BME280;44891;50.204;8.132;2023-06-26T16:08:47;98322.38;;;25.84;39.51
59106;BME280;44891;50.204;8.132;2023-06-26T16:12:49;98334.03;;;25.88;39.13
59106;BME280;44891;50.204;8.132;2023-06-26T16:16:51;98334.69;;;25.72;39.46
59106;BME280;44891;50.204;8.132;2023-06-26T16:20:54;98340.13;;;25.52;39.15
59106;BME280;44891;50.204;8.132;2023-06-26T16:24:56;98340.00;;;25.15;39.15
59106;BME280;44891;50.204;8.132;2023-06-26T16:28:58;98329.53;;;25.34;39.15
59106;BME280;44891;50.204;8.132;2023-06-26T16:32:59;98327.31;;;25.36;39.51
59106;BME280;44891;50.204;8.132;2023-06-26T16:37:03;98327.84;;;25.75;38.31
59106;BME280;44891;50.204;8.132;2023-06-26T16:41:08;98328.50;;;25.72;38.06
59106;BME280;44891;50.204;8.132;2023-06-26T16:45:10;98328.50;;;25.27;37.97
59106;BME280;44891;50.204;8.132;2023-06-26T16:49:12;98342.75;;;25.27;38.59
59106;BME280;44891;50.204;8.132;2023-06-26T16:53:15;98340.25;;;25.22;38.50
59106;BME280;44891;50.204;8.132;2023-06-26T16:57:17;98347.53;;;25.01;39.19
59106;BME280;44891;50.204;8.132;2023-06-26T17:01:19;98342.06;;;24.76;40.21
59106;BME280;44891;50.204;8.132;2023-06-26T17:05:20;98352.16;;;24.58;40.40
59106;BME280;44891;50.204;8.132;2023-06-26T17:09:23;98359.59;;;24.53;41.94
59106;BME280;44891;50.204;8.132;2023-06-26T17:13:26;98370.00;;;24.25;42.99
59106;BME280;44891;50.204;8.132;2023-06-26T17:17:27;98370.59;;;24.39;42.94
59106;BME280;44891;50.204;8.132;2023-06-26T17:21:29;98362.03;;;24.66;41.89
59106;BME280;44891;50.204;8.132;2023-06-26T17:25:33;98379.28;;;24.65;41.55
59106;BME280;44891;50.204;8.132;2023-06-26T17:29:35;98381.03;;;24.23;44.00
59106;BME280;44891;50.204;8.132;2023-06-26T17:33:37;98379.69;;;24.08;42.79
59106;BME280;44891;50.204;8.132;2023-06-26T17:37:38;98392.50;;;24.03;43.36
59106;BME280;44891;50.204;8.132;2023-06-26T17:41:42;98388.47;;;23.88;43.42
59106;BME280;44891;50.204;8.132;2023-06-26T17:45:43;98397.22;;;23.59;43.99
59106;BME280;44891;50.204;8.132;2023-06-26T17:49:45;98389.97;;;23.42;44.85
59106;BME280;44891;50.204;8.132;2023-06-26T17:53:47;98396.16;;;23.25;44.29
59106;BME280;44891;50.204;8.132;2023-06-26T17:57:52;98399.31;;;23.19;43.72
59106;BME280;44891;50.204;8.132;2023-06-26T18:01:54;98408.28;;;22.97;44.22
59106;BME280;44891;50.204;8.132;2023-06-26T18:05:59;98407.19;;;22.98;44.21
59106;BME280;44891;50.204;8.132;2023-06-26T18:10:00;98414.88;;;22.91;44.25
59106;BME280;44891;50.204;8.132;2023-06-26T18:14:04;98424.44;;;22.66;44.18
59106;BME280;44891;50.204;8.132;2023-06-26T18:18:06;98429.75;;;22.57;44.17
59106;BME280;44891;50.204;8.132;2023-06-26T18:22:08;98420.00;;;22.61;44.58
59106;BME280;44891;50.204;8.132;2023-06-26T18:26:10;98430.72;;;22.52;44.62
59106;BME280;44891;50.204;8.132;2023-06-26T18:30:13;98432.59;;;22.52;44.76
59106;BME280;44891;50.204;8.132;2023-06-26T18:34:16;98440.22;;;22.28;45.25
59106;BME280;44891;50.204;8.132;2023-06-26T18:38:17;98442.88;;;22.19;45.29
59106;BME280;44891;50.204;8.132;2023-06-26T18:42:19;98430.41;;;22.14;45.73
59106;BME280;44891;50.204;8.132;2023-06-26T18:46:22;98434.78;;;22.10;45.79
59106;BME280;44891;50.204;8.132;2023-06-26T18:50:28;98442.84;;;21.88;46.26
59106;BME280;44891;50.204;8.132;2023-06-26T18:54:30;98452.97;;;21.99;46.25
59106;BME280;44891;50.204;8.132;2023-06-26T18:58:31;98456.81;;;21.85;46.54
59106;BME280;44891;50.204;8.132;2023-06-26T19:02:35;98456.50;;;21.64;46.87
59106;BME280;44891;50.204;8.132;2023-06-26T19:06:37;98471.59;;;21.60;46.78
59106;BME280;44891;50.204;8.132;2023-06-26T19:10:39;98471.53;;;21.51;46.71
59106;BME280;44891;50.204;8.132;2023-06-26T19:14:42;98466.78;;;21.48;46.76
59106;BME280;44891;50.204;8.132;2023-06-26T19:18:46;98465.06;;;21.52;47.15
59106;BME280;44891;50.204;8.132;2023-06-26T19:22:48;98469.63;;;21.52;47.12
59106;BME280;44891;50.204;8.132;2023-06-26T19:26:50;98470.97;;;21.63;46.90
59106;BME280;44891;50.204;8.132;2023-06-26T19:30:53;98485.03;;;21.46;47.16
59106;BME280;44891;50.204;8.132;2023-06-26T19:34:56;98497.63;;;21.18;47.72
59106;BME280;44891;50.204;8.132;2023-06-26T19:38:58;98494.25;;;21.26;47.42
59106;BME280;44891;50.204;8.132;2023-06-26T19:42:59;98499.41;;;21.23;47.82
59106;BME280;44891;50.204;8.132;2023-06-26T19:47:01;98506.25;;;21.15;47.40
59106;BME280;44891;50.204;8.132;2023-06-26T19:51:04;98502.47;;;21.16;47.96
59106;BME280;44891;50.204;8.132;2023-06-26T19:55:07;98510.41;;;21.07;47.66
59106;BME280;44891;50.204;8.132;2023-06-26T19:59:08;98509.13;;;21.05;47.47
59106;BME280;44891;50.204;8.132;2023-06-26T20:03:10;98514.84;;;20.98;47.62
59106;BME280;44891;50.204;8.132;2023-06-26T20:07:13;98510.84;;;20.87;47.73
59106;BME280;44891;50.204;8.132;2023-06-26T20:11:15;98526.34;;;20.85;47.96
59106;BME280;44891;50.204;8.132;2023-06-26T20:15:17;98528.22;;;20.84;47.76
59106;BME280;44891;50.204;8.132;2023-06-26T20:19:19;98534.56;;;20.75;48.06
59106;BME280;44891;50.204;8.132;2023-06-26T20:23:22;98533.47;;;20.62;48.21
59106;BME280;44891;50.204;8.132;2023-06-26T20:27:24;98535.09;;;20.44;48.79
59106;BME280;44891;50.204;8.132;2023-06-26T20:31:26;98532.84;;;20.51;48.51
59106;BME280;44891;50.204;8.132;2023-06-26T20:35:28;98541.66;;;20.52;48.37
59106;BME280;44891;50.204;8.132;2023-06-26T20:39:32;98535.03;;;20.49;48.53
59106;BME280;44891;50.204;8.132;2023-06-26T20:43:34;98543.69;;;20.41;48.97
59106;BME280;44891;50.204;8.132;2023-06-26T20:47:36;98544.88;;;20.35;49.13
59106;BME280;44891;50.204;8.132;2023-06-26T20:51:42;98548.31;;;20.35;48.87
59106;BME280;44891;50.204;8.132;2023-06-26T20:55:46;98550.44;;;20.20;49.78
59106;BME280;44891;50.204;8.132;2023-06-26T20:59:48;98547.38;;;20.13;49.90
59106;BME280;44891;50.204;8.132;2023-06-26T21:03:50;98566.22;;;20.02;50.34
59106;BME280;44891;50.204;8.132;2023-06-26T21:07:52;98560.53;;;19.90;50.65
59106;BME280;44891;50.204;8.132;2023-06-26T21:11:55;98560.59;;;19.85;50.30
59106;BME280;44891;50.204;8.132;2023-06-26T21:15:57;98562.56;;;19.61;51.83
59106;BME280;44891;50.204;8.132;2023-06-26T21:19:59;98568.72;;;19.56;51.75
59106;BME280;44891;50.204;8.132;2023-06-26T21:24:01;98571.97;;;19.53;52.50